createdAt,value
2024-03-05T00:00:25.516Z,101464.25
2024-03-05T00:02:51.950Z,101474.50
2024-03-05T00:05:19.505Z,101496.88
2024-03-05T00:07:46.171Z,101612.06
2024-03-05T00:10:12.940Z,101623.97
2024-03-05T00:12:39.369Z,101610.59
2024-03-05T00:15:06.307Z,101618.88
2024-03-05T00:17:32.999Z,101570.97
2024-03-05T00:19:59.453Z,101611.19
2024-03-05T00:22:25.906Z,101425.31
2024-03-05T00:24:52.416Z,101556.88
2024-03-05T00:27:18.873Z,101623.31
2024-03-05T00:29:45.326Z,101550.16
2024-03-05T00:32:11.860Z,101582.31
2024-03-05T00:34:39.253Z,101614.78
2024-03-05T00:37:06.179Z,101531.09
2024-03-05T00:39:32.667Z,101576.53
2024-03-05T00:41:59.056Z,101618.06
2024-03-05T00:44:25.523Z,101589.47
2024-03-05T00:46:54.022Z,101601.66
2024-03-05T00:49:21.416Z,101616.72
2024-03-05T00:51:48.759Z,101566.56
2024-03-05T00:54:15.368Z,101603.97
2024-03-05T00:56:41.866Z,101608.66
2024-03-05T00:59:08.305Z,101625.72
2024-03-05T01:01:34.823Z,101589.78
2024-03-05T01:04:01.486Z,101549.28
2024-03-05T01:06:27.854Z,101485.06
2024-03-05T01:08:54.230Z,101624.38
2024-03-05T01:11:20.738Z,101601.91
2024-03-05T01:13:47.209Z,101458.16
2024-03-05T01:16:13.726Z,101531.31
2024-03-05T01:18:40.157Z,101516.94
2024-03-05T01:21:07.504Z,101622.16
2024-03-05T01:23:34.369Z,101569.75
2024-03-05T01:26:01.091Z,101621.31
2024-03-05T01:28:30.545Z,101594.47
2024-03-05T01:30:56.996Z,101615.28
2024-03-05T01:33:24.074Z,101619.41
2024-03-05T01:35:52.147Z,101614.66
2024-03-05T01:38:18.685Z,101623.78
2024-03-05T01:40:46.126Z,101604.69
2024-03-05T01:43:12.662Z,101564.16
2024-03-05T01:45:39.388Z,101475.59
2024-03-05T01:48:06.477Z,101558.63
2024-03-05T01:50:36.347Z,101619.09
2024-03-05T01:53:05.489Z,101574.78
2024-03-05T01:55:32.156Z,101621.19
2024-03-05T01:57:59.425Z,101630.69
2024-03-05T02:00:27.299Z,101630.38
2024-03-05T02:02:56.628Z,101595.53
2024-03-05T02:05:23.825Z,101625.69
2024-03-05T02:07:54.532Z,101594.06
2024-03-05T02:10:24.313Z,101580.84
2024-03-05T02:12:50.839Z,101625.09
2024-03-05T02:15:19.970Z,101609.03
2024-03-05T02:17:47.099Z,101559.22
2024-03-05T02:20:16.573Z,101605.50
2024-03-05T02:22:43.574Z,101623.00
2024-03-05T02:25:10.877Z,101591.13
2024-03-05T02:27:38.233Z,101534.94
2024-03-05T02:30:11.249Z,101620.16
2024-03-05T02:32:41.859Z,101564.28
2024-03-05T02:35:09.502Z,101612.78
2024-03-05T02:37:40.009Z,101614.41
2024-03-05T02:40:11.252Z,101608.91
2024-03-05T02:42:38.161Z,101577.81
2024-03-05T02:45:08.359Z,101588.06
2024-03-05T02:47:43.245Z,101610.00
2024-03-05T02:50:10.906Z,101614.44
2024-03-05T02:52:40.397Z,101609.38
2024-03-05T02:55:11.256Z,101610.13
2024-03-05T02:57:45.449Z,101597.16
2024-03-05T03:00:21.550Z,101610.13
2024-03-05T03:02:50.487Z,101574.97
2024-03-05T03:05:17.897Z,101621.22
2024-03-05T03:07:45.009Z,101441.94
2024-03-05T03:10:14.829Z,101583.47
2024-03-05T03:12:41.990Z,101624.25
2024-03-05T03:15:09.504Z,101587.44
2024-03-05T03:17:39.283Z,101583.84
2024-03-05T03:20:08.815Z,101416.22
2024-03-05T03:22:36.383Z,101636.69
2024-03-05T03:25:03.131Z,101552.78
2024-03-05T03:27:31.056Z,101578.50
2024-03-05T03:29:59.096Z,101596.31
2024-03-05T03:32:25.648Z,101628.41
2024-03-05T03:34:52.775Z,101548.97
2024-03-05T03:37:19.343Z,101601.34
2024-03-05T03:39:47.878Z,101629.63
2024-03-05T03:42:14.384Z,101585.09
2024-03-05T03:44:40.980Z,101615.06
2024-03-05T03:47:07.986Z,101611.78
2024-03-05T03:49:34.656Z,101655.06
2024-03-05T03:52:01.059Z,101630.63
2024-03-05T03:54:27.512Z,101645.94
2024-03-05T03:56:53.959Z,101644.22
2024-03-05T03:59:21.269Z,101619.09
2024-03-05T04:01:49.059Z,101643.63
2024-03-05T04:04:15.508Z,101627.44
2024-03-05T04:06:43.166Z,101631.06
2024-03-05T04:09:09.651Z,101653.63
2024-03-05T04:11:39.665Z,101661.63
2024-03-05T04:14:06.343Z,101657.19
2024-03-05T04:16:33.001Z,101645.75
2024-03-05T04:18:59.867Z,101666.81
2024-03-05T04:21:26.972Z,101638.06
2024-03-05T04:23:53.687Z,101614.13
2024-03-05T04:26:27.767Z,101665.19
2024-03-05T04:28:56.132Z,101671.81
2024-03-05T04:34:00.327Z,101670.94
2024-03-05T04:36:26.725Z,101670.13
2024-03-05T04:38:56.486Z,101641.00
2024-03-05T04:41:23.399Z,101669.06
2024-03-05T04:43:49.818Z,101589.66
2024-03-05T04:46:16.279Z,101592.91
2024-03-05T04:48:42.667Z,101680.22
2024-03-05T04:51:13.570Z,101643.06
2024-03-05T04:53:39.984Z,101689.13
2024-03-05T04:56:07.713Z,101660.00
2024-03-05T04:58:34.568Z,101630.59
2024-03-05T05:01:00.992Z,101595.84
2024-03-05T05:03:27.676Z,101598.34
2024-03-05T05:05:58.666Z,101655.25
2024-03-05T05:08:25.229Z,101686.25
2024-03-05T05:10:51.742Z,101657.97
2024-03-05T05:13:18.693Z,101679.22
2024-03-05T05:15:45.250Z,101694.41
2024-03-05T05:18:11.696Z,101546.69
2024-03-05T05:20:38.142Z,101691.09
2024-03-05T05:23:05.051Z,101680.53
2024-03-05T05:25:31.512Z,101673.63
2024-03-05T05:27:57.936Z,101704.97
2024-03-05T05:30:24.864Z,101658.03
2024-03-05T05:32:51.626Z,101701.72
2024-03-05T05:35:18.531Z,101709.72
2024-03-05T05:37:45.861Z,101619.09
2024-03-05T05:40:14.948Z,101708.50
2024-03-05T05:42:42.438Z,101713.38
2024-03-05T05:45:10.339Z,101681.84
2024-03-05T05:47:39.718Z,101716.06
2024-03-05T05:50:18.501Z,101698.13
2024-03-05T05:52:51.241Z,101724.94
2024-03-05T05:55:20.643Z,101730.41
2024-03-05T05:57:48.767Z,101676.31
2024-03-05T06:00:36.223Z,101730.97
2024-03-05T06:03:09.014Z,101734.00
2024-03-05T06:05:37.618Z,101739.09
2024-03-05T06:08:05.367Z,101722.88
2024-03-05T06:10:31.992Z,101696.00
2024-03-05T06:12:59.271Z,101722.97
2024-03-05T06:15:25.726Z,101736.44
2024-03-05T06:17:52.969Z,101678.75
2024-03-05T06:20:19.818Z,101746.94
2024-03-05T06:22:46.926Z,101702.81
2024-03-05T06:25:17.752Z,101746.44
2024-03-05T06:27:44.518Z,101705.84
2024-03-05T06:30:19.294Z,101702.75
2024-03-05T06:32:48.656Z,101720.56
2024-03-05T06:35:17.083Z,101739.13
2024-03-05T06:37:45.142Z,101690.75
2024-03-05T06:40:13.315Z,101748.44
2024-03-05T06:42:42.306Z,101756.78
2024-03-05T06:45:16.385Z,101698.06
2024-03-05T06:48:07.067Z,101709.94
2024-03-05T06:50:39.262Z,101691.16
2024-03-05T06:53:25.285Z,101749.47
2024-03-05T06:56:10.635Z,101753.88
2024-03-05T06:58:39.972Z,101765.34
2024-03-05T07:01:09.397Z,101705.91
2024-03-05T07:03:36.911Z,101709.75
2024-03-05T07:06:08.308Z,101687.91
2024-03-05T07:08:36.399Z,101625.50
2024-03-05T07:11:06.791Z,101754.41
2024-03-05T07:13:35.049Z,101716.41
2024-03-05T07:16:03.432Z,101752.84
2024-03-05T07:18:29.900Z,101786.69
2024-03-05T07:20:56.332Z,101712.75
2024-03-05T07:23:22.750Z,101787.38
2024-03-05T07:25:49.323Z,101782.47
2024-03-05T07:28:17.013Z,101781.38
2024-03-05T07:30:43.691Z,101768.88
2024-03-05T07:33:10.649Z,101787.50
2024-03-05T07:35:37.242Z,101707.03
2024-03-05T07:38:03.903Z,101730.75
2024-03-05T07:40:30.852Z,101778.81
2024-03-05T07:42:57.312Z,101752.44
2024-03-05T07:45:24.283Z,101786.06
2024-03-05T07:47:51.570Z,101771.91
2024-03-05T07:50:18.268Z,101720.63
2024-03-05T07:52:46.401Z,101787.03
2024-03-05T07:55:15.449Z,101791.66
2024-03-05T07:57:46.541Z,101791.91
2024-03-05T08:00:14.832Z,101716.22
2024-03-05T08:02:43.675Z,101774.69
2024-03-05T08:05:10.562Z,101797.72
2024-03-05T08:07:37.682Z,101796.13
2024-03-05T08:10:06.375Z,101790.19
2024-03-05T08:12:32.727Z,101779.38
2024-03-05T08:14:59.185Z,101769.72
2024-03-05T08:17:25.586Z,101750.56
2024-03-05T08:19:52.852Z,101695.38
2024-03-05T08:22:29.241Z,101791.56
2024-03-05T08:24:55.961Z,101668.19
2024-03-05T08:27:22.865Z,101785.31
2024-03-05T08:29:51.065Z,101732.00
2024-03-05T08:32:18.611Z,101806.63
2024-03-05T08:34:45.137Z,101817.41
2024-03-05T08:37:12.909Z,101770.72
2024-03-05T08:39:42.247Z,101798.00
2024-03-05T08:42:08.706Z,101808.16
2024-03-05T08:44:35.049Z,101811.06
2024-03-05T08:47:01.445Z,101818.34
2024-03-05T08:49:27.888Z,101759.78
2024-03-05T08:51:54.414Z,101682.69
2024-03-05T08:54:22.016Z,101696.50
2024-03-05T08:56:48.621Z,101830.84
2024-03-05T08:59:15.542Z,101818.16
2024-03-05T09:01:42.086Z,101765.41
2024-03-05T09:04:08.558Z,101810.50
2024-03-05T09:06:34.968Z,101780.66
2024-03-05T09:09:01.470Z,101732.06
2024-03-05T09:11:28.973Z,101681.84
2024-03-05T09:13:55.461Z,101778.34
2024-03-05T09:16:21.863Z,101819.41
2024-03-05T09:18:48.335Z,101720.44
2024-03-05T09:21:15.434Z,101780.56
2024-03-05T09:23:41.917Z,101821.72
2024-03-05T09:26:08.801Z,101778.16
2024-03-05T09:28:36.319Z,101807.53
2024-03-05T09:31:02.834Z,101636.59
2024-03-05T09:33:30.461Z,101805.88
2024-03-05T09:35:57.223Z,101749.13
2024-03-05T09:38:23.648Z,101778.56
2024-03-05T09:40:52.266Z,101815.88
2024-03-05T09:43:25.280Z,101840.22
2024-03-05T09:45:52.664Z,101764.75
2024-03-05T09:48:20.861Z,101837.81
2024-03-05T09:50:49.644Z,101818.44
2024-03-05T09:53:16.937Z,101698.06
2024-03-05T09:55:44.888Z,101737.94
2024-03-05T09:58:12.332Z,101827.25
2024-03-05T10:00:39.248Z,101850.63
2024-03-05T10:03:09.968Z,101740.41
2024-03-05T10:05:41.430Z,101720.72
2024-03-05T10:08:07.967Z,101833.38
2024-03-05T10:10:34.609Z,101803.09
2024-03-05T10:13:02.323Z,101747.44
2024-03-05T10:15:28.767Z,101757.28
2024-03-05T10:17:56.529Z,101846.38
2024-03-05T10:20:33.931Z,101855.78
2024-03-05T10:23:02.854Z,101813.88
2024-03-05T10:25:30.899Z,101864.09
2024-03-05T10:27:58.195Z,101854.69
2024-03-05T10:30:28.691Z,101744.81
2024-03-05T10:32:58.772Z,101828.56
2024-03-05T10:35:25.216Z,101680.19
2024-03-05T10:38:02.088Z,101863.31
2024-03-05T10:40:39.037Z,101860.28
2024-03-05T10:43:08.851Z,101860.56
2024-03-05T10:45:42.359Z,101836.44
2024-03-05T10:48:11.657Z,101868.88
2024-03-05T10:50:41.415Z,101819.00
2024-03-05T10:53:08.842Z,101832.06
2024-03-05T10:55:37.753Z,101847.06
2024-03-05T10:58:14.882Z,101862.91
2024-03-05T11:00:44.883Z,101832.34
2024-03-05T11:03:14.161Z,101858.72
2024-03-05T11:05:49.001Z,101813.81
2024-03-05T11:08:19.233Z,101727.56
2024-03-05T11:10:56.232Z,101820.75
2024-03-05T11:13:23.187Z,101716.25
2024-03-05T11:15:50.493Z,101857.06
2024-03-05T11:18:30.176Z,101853.44
2024-03-05T11:20:57.094Z,101822.97
2024-03-05T11:23:27.940Z,101849.88
2024-03-05T11:26:01.958Z,101833.53
2024-03-05T11:28:28.554Z,101794.19
2024-03-05T11:31:21.486Z,101830.50
2024-03-05T11:33:58.598Z,101828.81
2024-03-05T11:36:25.477Z,101833.53
2024-03-05T11:38:57.077Z,101828.25
2024-03-05T11:41:24.922Z,101839.34
2024-03-05T11:43:51.401Z,101726.84
2024-03-05T11:46:48.483Z,101762.25
2024-03-05T11:49:16.831Z,101831.03
2024-03-05T11:51:45.560Z,101835.47
2024-03-05T11:54:19.971Z,101834.94
2024-03-05T11:56:57.339Z,101843.25
2024-03-05T11:59:35.507Z,101839.38
2024-03-05T12:02:02.347Z,101838.25
2024-03-05T12:04:28.950Z,101656.75
2024-03-05T12:07:08.125Z,101839.63
2024-03-05T12:09:39.181Z,101844.59
2024-03-05T12:12:14.838Z,101842.13
2024-03-05T12:14:56.902Z,101846.25
2024-03-05T12:17:25.381Z,101821.59
2024-03-05T12:20:05.881Z,101831.56
2024-03-05T12:22:32.479Z,101843.19
2024-03-05T12:24:59.354Z,101774.19
2024-03-05T12:27:26.148Z,101842.63
2024-03-05T12:29:53.462Z,101817.13
2024-03-05T12:32:20.335Z,101821.03
2024-03-05T12:34:50.720Z,101827.97
2024-03-05T12:37:20.293Z,101849.00
2024-03-05T12:39:46.916Z,101789.72
2024-03-05T12:42:21.947Z,101855.69
2024-03-05T12:44:48.755Z,101817.97
2024-03-05T12:47:19.732Z,101832.97
2024-03-05T12:49:49.316Z,101854.03
2024-03-05T12:52:20.991Z,101853.19
2024-03-05T12:54:58.003Z,101856.25
2024-03-05T12:57:25.988Z,101866.53
2024-03-05T12:59:52.422Z,101857.94
2024-03-05T13:02:19.215Z,101838.50
2024-03-05T13:04:46.498Z,101665.38
2024-03-05T13:07:13.184Z,101857.94
2024-03-05T13:09:39.538Z,101822.16
2024-03-05T13:12:06.469Z,101865.09
2024-03-05T13:14:33.051Z,101778.31
2024-03-05T13:17:00.037Z,101859.00
2024-03-05T13:19:26.495Z,101880.66
2024-03-05T13:21:53.104Z,101848.22
2024-03-05T13:24:19.470Z,101875.66
2024-03-05T13:26:49.452Z,101874.84
2024-03-05T13:29:16.026Z,101856.25
2024-03-05T13:31:42.683Z,101862.88
2024-03-05T13:34:10.440Z,101710.75
2024-03-05T13:36:40.515Z,101866.22
2024-03-05T13:39:09.973Z,101884.53
2024-03-05T13:41:37.611Z,101863.19
2024-03-05T13:44:05.320Z,101760.94
2024-03-05T13:46:32.342Z,101861.78
2024-03-05T13:48:59.567Z,101863.44
2024-03-05T13:51:27.618Z,101843.22
2024-03-05T13:53:59.232Z,101883.69
2024-03-05T13:56:29.947Z,101893.13
2024-03-05T13:58:58.983Z,101813.03
2024-03-05T14:01:25.484Z,101852.38
2024-03-05T14:03:55.264Z,101883.44
2024-03-05T14:06:22.214Z,101892.03
2024-03-05T14:08:49.398Z,101887.03
2024-03-05T14:11:16.144Z,101895.09
2024-03-05T14:13:45.188Z,101770.88
2024-03-05T14:16:14.829Z,101891.75
2024-03-05T14:18:42.471Z,101884.28
2024-03-05T14:21:08.861Z,101892.28
2024-03-05T14:23:35.717Z,101832.16
2024-03-05T14:26:02.231Z,101836.88
2024-03-05T14:28:31.428Z,101725.47
2024-03-05T14:30:57.819Z,101781.69
2024-03-05T14:33:24.148Z,101890.06
2024-03-05T14:35:51.111Z,101836.88
2024-03-05T14:38:17.945Z,101841.28
2024-03-05T14:40:44.528Z,101850.19
2024-03-05T14:43:11.176Z,101897.84
2024-03-05T14:45:37.531Z,101819.38
2024-03-05T14:48:04.469Z,101722.84
2024-03-05T14:50:31.120Z,101898.13
2024-03-05T14:52:57.615Z,101900.63
2024-03-05T14:55:26.501Z,101899.78
2024-03-05T14:57:54.567Z,101880.66
2024-03-05T15:00:24.387Z,101840.44
2024-03-05T15:02:51.954Z,101920.59
2024-03-05T15:05:19.919Z,101822.97
2024-03-05T15:07:46.893Z,101851.50
2024-03-05T15:10:15.783Z,101740.53
2024-03-05T15:12:51.030Z,101738.00
2024-03-05T15:15:18.952Z,101915.88
2024-03-05T15:17:46.836Z,101884.78
2024-03-05T15:20:16.560Z,101877.53
2024-03-05T15:22:44.900Z,101729.09
2024-03-05T15:25:12.998Z,101851.44
2024-03-05T15:27:45.598Z,101920.81
2024-03-05T15:30:14.437Z,101888.06
2024-03-05T15:32:48.595Z,101901.63
2024-03-05T15:35:16.748Z,101919.66
2024-03-05T15:37:44.564Z,101919.91
2024-03-05T15:40:21.740Z,101930.78
2024-03-05T15:42:50.700Z,101920.81
2024-03-05T15:45:19.279Z,101881.94
2024-03-05T15:47:47.132Z,101932.41
2024-03-05T15:50:24.771Z,101904.88
2024-03-05T15:52:58.304Z,101917.91
2024-03-05T15:55:26.320Z,101932.34
2024-03-05T15:57:59.080Z,101958.34
2024-03-05T16:00:29.858Z,101958.69
2024-03-05T16:03:00.240Z,101965.56
2024-03-05T16:05:39.424Z,101960.22
2024-03-05T16:08:15.752Z,101939.38
2024-03-05T16:10:48.354Z,101828.03
2024-03-05T16:13:15.726Z,101801.34
2024-03-05T16:15:45.458Z,101914.88
2024-03-05T16:18:12.569Z,101965.63
2024-03-05T16:20:40.497Z,101971.84
2024-03-05T16:23:10.581Z,101967.09
2024-03-05T16:25:40.444Z,101983.06
2024-03-05T16:28:07.615Z,101860.44
2024-03-05T16:30:34.305Z,101935.84
2024-03-05T16:33:01.083Z,101832.78
2024-03-05T16:35:28.446Z,101982.84
2024-03-05T16:37:55.709Z,101922.50
2024-03-05T16:40:23.591Z,101999.16
2024-03-05T16:42:53.291Z,101951.59
2024-03-05T16:45:29.035Z,102005.31
2024-03-05T16:47:57.737Z,101975.53
2024-03-05T16:50:28.006Z,101967.47
2024-03-05T16:52:57.509Z,102000.28
2024-03-05T16:55:24.748Z,102009.44
2024-03-05T16:57:54.026Z,101971.06
2024-03-05T17:00:28.547Z,101952.28
2024-03-05T17:02:56.850Z,101960.03
2024-03-05T17:05:24.830Z,101978.19
2024-03-05T17:07:55.705Z,102021.13
2024-03-05T17:10:27.940Z,102027.00
2024-03-05T17:12:56.835Z,102026.84
2024-03-05T17:15:32.765Z,101963.25
2024-03-05T17:18:04.900Z,102012.19
2024-03-05T17:20:34.837Z,102034.69
2024-03-05T17:23:04.242Z,101992.16
2024-03-05T17:25:39.610Z,101934.88
2024-03-05T17:28:09.720Z,102009.50
2024-03-05T17:30:39.076Z,102029.75
2024-03-05T17:33:12.692Z,102047.53
2024-03-05T17:35:41.611Z,101999.06
2024-03-05T17:38:10.735Z,102011.47
2024-03-05T17:40:37.304Z,102056.31
2024-03-05T17:43:05.121Z,102036.25
2024-03-05T17:45:32.674Z,102060.88
2024-03-05T17:48:02.225Z,101986.53
2024-03-05T17:50:28.967Z,101948.16
2024-03-05T17:52:55.639Z,102029.00
2024-03-05T17:55:22.171Z,102062.31
2024-03-05T17:57:52.073Z,102068.75
2024-03-05T18:00:28.625Z,102064.34
2024-03-05T18:02:56.858Z,102067.44
2024-03-05T18:05:27.877Z,102013.44
2024-03-05T18:07:55.128Z,102063.78
2024-03-05T18:10:24.158Z,101977.56
2024-03-05T18:12:51.926Z,102068.28
2024-03-05T18:15:20.924Z,102073.84
2024-03-05T18:17:49.793Z,102025.44
2024-03-05T18:20:20.133Z,102081.88
2024-03-05T18:22:47.413Z,102055.94
2024-03-05T18:25:18.205Z,102086.59
2024-03-05T18:27:47.854Z,102088.94
2024-03-05T18:30:19.732Z,102051.22
2024-03-05T18:32:48.215Z,102070.66
2024-03-05T18:35:17.656Z,102064.69
2024-03-05T18:37:44.638Z,101951.31
2024-03-05T18:40:14.623Z,102080.00
2024-03-05T18:42:46.670Z,102032.81
2024-03-05T18:45:16.736Z,102006.91
2024-03-05T18:47:54.483Z,102061.00
2024-03-05T18:50:28.955Z,102069.56
2024-03-05T18:52:58.238Z,102088.28
2024-03-05T18:55:29.817Z,102061.56
2024-03-05T18:57:57.296Z,102061.09
2024-03-05T19:00:24.459Z,102037.84
2024-03-05T19:02:51.842Z,102087.41
2024-03-05T19:05:20.097Z,102058.34
2024-03-05T19:07:48.298Z,102064.59
2024-03-05T19:10:17.137Z,102086.84
2024-03-05T19:12:44.485Z,102030.75
2024-03-05T19:15:16.744Z,101947.28
2024-03-05T19:17:43.843Z,102098.88
2024-03-05T19:20:12.095Z,102078.91
2024-03-05T19:22:39.939Z,102031.00
2024-03-05T19:25:11.608Z,102097.00
2024-03-05T19:27:42.685Z,102081.78
2024-03-05T19:30:12.423Z,102111.66
2024-03-05T19:32:43.244Z,101974.31
2024-03-05T19:35:11.815Z,101957.78
2024-03-05T19:37:45.903Z,102113.50
2024-03-05T19:40:16.817Z,102116.38
2024-03-05T19:42:45.724Z,102071.28
2024-03-05T19:45:13.213Z,102109.38
2024-03-05T19:47:39.776Z,101925.97
2024-03-05T19:50:07.033Z,102095.19
2024-03-05T19:52:34.545Z,102123.19
2024-03-05T19:55:01.053Z,102106.53
2024-03-05T19:57:28.212Z,102119.97
2024-03-05T19:59:56.906Z,102116.31
2024-03-05T20:02:24.562Z,102113.16
2024-03-05T20:04:51.177Z,102112.47
2024-03-05T20:07:20.983Z,102098.03
2024-03-05T20:09:47.333Z,102090.59
2024-03-05T20:12:13.923Z,102089.94
2024-03-05T20:14:40.571Z,102123.09
2024-03-05T20:17:08.569Z,101976.88
2024-03-05T20:19:40.261Z,102000.66
2024-03-05T20:22:08.574Z,102072.44
2024-03-05T20:24:36.190Z,102127.03
2024-03-05T20:27:10.153Z,102137.47
2024-03-05T20:29:41.554Z,102130.84
2024-03-05T20:32:08.216Z,102138.88
2024-03-05T20:34:34.952Z,102133.03
2024-03-05T20:37:02.270Z,102113.81
2024-03-05T20:39:28.709Z,102138.03
2024-03-05T20:41:55.185Z,102089.09
2024-03-05T20:44:22.088Z,102116.00
2024-03-05T20:46:48.563Z,102074.19
2024-03-05T20:49:16.091Z,101961.34
2024-03-05T20:51:42.475Z,102132.66
2024-03-05T20:54:09.064Z,102104.03
2024-03-05T20:56:35.458Z,101991.00
2024-03-05T20:59:01.931Z,102014.91
2024-03-05T21:01:30.452Z,102119.78
2024-03-05T21:03:56.932Z,101993.75
2024-03-05T21:06:23.292Z,102129.38
2024-03-05T21:08:49.709Z,102070.47
2024-03-05T21:11:16.445Z,102126.41
2024-03-05T21:13:43.540Z,102012.19
2024-03-05T21:16:10.940Z,102132.75
2024-03-05T21:18:40.560Z,101987.59
2024-03-05T21:21:07.971Z,101984.25
2024-03-05T21:23:35.331Z,102121.00
2024-03-05T21:26:13.538Z,102139.66
2024-03-05T21:28:49.514Z,102132.69
2024-03-05T21:31:18.206Z,102111.13
2024-03-05T21:33:44.789Z,102100.88
2024-03-05T21:36:11.243Z,102046.53
2024-03-05T21:38:37.809Z,102132.97
2024-03-05T21:41:04.802Z,102047.75
2024-03-05T21:43:31.259Z,102057.22
2024-03-05T21:45:57.979Z,102098.88
2024-03-05T21:48:24.328Z,102015.78
2024-03-05T21:50:55.049Z,102099.41
2024-03-05T21:53:23.765Z,102114.63
2024-03-05T21:55:50.182Z,102106.34
2024-03-05T21:58:16.549Z,102062.94
2024-03-05T22:00:43.083Z,102142.25
2024-03-05T22:03:09.552Z,102129.44
2024-03-05T22:05:35.924Z,102140.22
2024-03-05T22:08:02.466Z,102063.91
2024-03-05T22:10:29.531Z,102099.22
2024-03-05T22:12:56.386Z,102153.50
2024-03-05T22:15:23.286Z,102078.88
2024-03-05T22:17:49.726Z,102129.72
2024-03-05T22:20:16.701Z,102152.88
2024-03-05T22:22:43.208Z,102135.34
2024-03-05T22:25:09.804Z,102155.84
2024-03-05T22:27:36.486Z,102174.53
2024-03-05T22:30:03.955Z,102165.84
2024-03-05T22:32:30.406Z,102170.00
2024-03-05T22:34:59.003Z,102059.25
2024-03-05T22:37:25.640Z,102164.47
2024-03-05T22:39:52.071Z,102069.75
2024-03-05T22:42:18.550Z,102183.31
2024-03-05T22:44:45.002Z,102104.75
2024-03-05T22:47:11.477Z,102144.28
2024-03-05T22:49:38.463Z,102152.91
2024-03-05T22:52:05.343Z,102172.25
2024-03-05T22:54:31.764Z,102138.50
2024-03-05T22:56:58.192Z,102142.16
2024-03-05T22:59:24.669Z,102161.91
2024-03-05T23:01:51.131Z,102119.88
2024-03-05T23:04:18.126Z,102161.34
2024-03-05T23:06:44.556Z,102147.69
2024-03-05T23:09:13.325Z,102163.91
2024-03-05T23:11:42.531Z,101990.50
2024-03-05T23:14:10.534Z,102179.59
2024-03-05T23:16:37.821Z,102148.97
2024-03-05T23:19:07.184Z,101972.28
2024-03-05T23:21:33.689Z,102159.59
2024-03-05T23:24:00.773Z,102182.47
2024-03-05T23:26:28.045Z,102048.53
2024-03-05T23:28:54.819Z,102151.56
2024-03-05T23:31:21.316Z,102169.88
2024-03-05T23:33:47.725Z,102175.91
2024-03-05T23:36:14.086Z,102191.09
2024-03-05T23:38:40.836Z,102187.81
2024-03-05T23:41:16.703Z,102154.06
2024-03-05T23:43:50.738Z,102197.56
2024-03-05T23:46:17.307Z,102193.44
2024-03-05T23:48:43.672Z,102120.44
2024-03-05T23:51:12.358Z,102178.97
2024-03-05T23:53:39.943Z,102178.31
2024-03-05T23:56:07.399Z,102201.00
2024-03-05T23:58:33.825Z,102121.78
